Portree, United Kingdom
Current Conditions -  °F | °C
As of 2:50 AM on Wednesday 22 Oct 2014 (Local Time) from EGPL Reporting Station
Broken Clouds Broken Clouds  
Wind Chill: 50°   Ceiling: 4500
Heat Index: 50°   Visibility: NA
Dew Point: 43°   Wind: 21mph
Humidity: 76%   Direction: 270°W
Pressure: 30"   Gusts: NA
Location:  57.41°N, 6.19°W
Report Text: EGPL 220150Z AUTO 27018KT //// // FEW031/// BKN045/// 10/06 Q1016
Loading
Personal Weather Stations






























Interactive Weather Map
Tropical Storm Tracking
New forecast layout! Learn more

10-Day Weather Forecast

Advertisements
Track Severe Weather on mobile